Alameda, New Mexico
Current Conditions -  °F | °C
As of 2:35 AM on Monday 24 Nov 2014 (Local Time) from KAEG Reporting Station
Clear Clear  
Wind Chill: 20°   Ceiling: Unl
Heat Index: 28°   Visibility: 10mi
Dew Point:   Wind: 7mph
Humidity: 40%   Direction: 340°NNW
Pressure: 30.11"   Gusts: NA
Location:  35.1991°N, 106.662°W
Report Text: KAEG 240935Z AUTO 34006KT 10SM CLR M02/M14 A3011 RMK AO2 T10241145
Loading
Personal Weather Stations






























Interactive Weather Map New forecast layout! Learn more

10-Day Weather Forecast

Advertisements
Track Severe Weather on mobile